sensor_id;sensor_type;location;lat;lon;timestamp;P1;durP1;ratioP1;P2;durP2;ratioP2
48042;SDS011;33988;47.992;8.820;2023-11-21T00:01:37;5.45;;;2.42;;
48042;SDS011;33988;47.992;8.820;2023-11-21T00:04:05;7.38;;;2.97;;
48042;SDS011;33988;47.992;8.820;2023-11-21T00:06:33;4.50;;;1.60;;
48042;SDS011;33988;47.992;8.820;2023-11-21T00:09:00;4.47;;;1.40;;
48042;SDS011;33988;47.992;8.820;2023-11-21T00:11:31;6.38;;;2.63;;
48042;SDS011;33988;47.992;8.820;2023-11-21T00:14:00;3.30;;;1.08;;
48042;SDS011;33988;47.992;8.820;2023-11-21T00:16:27;3.20;;;1.33;;
48042;SDS011;33988;47.992;8.820;2023-11-21T00:18:54;4.55;;;0.93;;
48042;SDS011;33988;47.992;8.820;2023-11-21T00:21:24;3.55;;;1.05;;
48042;SDS011;33988;47.992;8.820;2023-11-21T00:23:51;1.60;;;0.77;;
48042;SDS011;33988;47.992;8.820;2023-11-21T00:26:18;4.70;;;1.50;;
48042;SDS011;33988;47.992;8.820;2023-11-21T00:28:47;3.63;;;1.10;;
48042;SDS011;33988;47.992;8.820;2023-11-21T00:31:16;6.10;;;2.00;;
48042;SDS011;33988;47.992;8.820;2023-11-21T00:33:43;2.40;;;1.17;;
48042;SDS011;33988;47.992;8.820;2023-11-21T00:36:13;1.58;;;0.88;;
48042;SDS011;33988;47.992;8.820;2023-11-21T00:38:40;3.50;;;1.20;;
48042;SDS011;33988;47.992;8.820;2023-11-21T00:41:09;4.28;;;1.40;;
48042;SDS011;33988;47.992;8.820;2023-11-21T00:43:36;4.80;;;1.00;;
48042;SDS011;33988;47.992;8.820;2023-11-21T00:46:08;2.60;;;1.10;;
48042;SDS011;33988;47.992;8.820;2023-11-21T00:48:35;2.53;;;0.98;;
48042;SDS011;33988;47.992;8.820;2023-11-21T00:51:05;3.15;;;0.98;;
48042;SDS011;33988;47.992;8.820;2023-11-21T00:53:32;4.30;;;0.98;;
48042;SDS011;33988;47.992;8.820;2023-11-21T00:55:59;4.00;;;1.15;;
48042;SDS011;33988;47.992;8.820;2023-11-21T00:58:26;4.72;;;1.10;;
48042;SDS011;33988;47.992;8.820;2023-11-21T01:00:53;3.72;;;0.80;;
48042;SDS011;33988;47.992;8.820;2023-11-21T01:03:20;3.63;;;0.80;;
48042;SDS011;33988;47.992;8.820;2023-11-21T01:05:48;2.08;;;0.70;;
48042;SDS011;33988;47.992;8.820;2023-11-21T01:08:17;4.55;;;1.25;;
48042;SDS011;33988;47.992;8.820;2023-11-21T01:10:44;3.05;;;0.90;;
48042;SDS011;33988;47.992;8.820;2023-11-21T01:13:14;2.08;;;0.90;;
48042;SDS011;33988;47.992;8.820;2023-11-21T01:15:41;1.98;;;0.88;;
48042;SDS011;33988;47.992;8.820;2023-11-21T01:18:11;2.05;;;0.95;;
48042;SDS011;33988;47.992;8.820;2023-11-21T01:20:43;1.63;;;0.80;;
48042;SDS011;33988;47.992;8.820;2023-11-21T01:23:11;1.52;;;0.88;;
48042;SDS011;33988;47.992;8.820;2023-11-21T01:25:38;1.80;;;1.13;;
48042;SDS011;33988;47.992;8.820;2023-11-21T01:28:07;2.35;;;0.98;;
48042;SDS011;33988;47.992;8.820;2023-11-21T01:30:34;1.27;;;0.70;;
48042;SDS011;33988;47.992;8.820;2023-11-21T01:33:03;0.85;;;0.70;;
48042;SDS011;33988;47.992;8.820;2023-11-21T01:35:33;1.80;;;0.90;;
48042;SDS011;33988;47.992;8.820;2023-11-21T01:38:00;1.25;;;0.73;;
48042;SDS011;33988;47.992;8.820;2023-11-21T01:40:27;3.40;;;1.30;;
48042;SDS011;33988;47.992;8.820;2023-11-21T01:42:59;3.42;;;1.42;;
48042;SDS011;33988;47.992;8.820;2023-11-21T01:45:29;3.40;;;1.65;;
48042;SDS011;33988;47.992;8.820;2023-11-21T01:48:02;2.90;;;1.50;;
48042;SDS011;33988;47.992;8.820;2023-11-21T01:50:33;4.28;;;1.50;;
48042;SDS011;33988;47.992;8.820;2023-11-21T01:53:00;5.00;;;1.63;;
48042;SDS011;33988;47.992;8.820;2023-11-21T01:55:27;10.45;;;3.55;;
48042;SDS011;33988;47.992;8.820;2023-11-21T01:57:56;7.13;;;2.47;;
48042;SDS011;33988;47.992;8.820;2023-11-21T02:00:24;7.93;;;3.42;;
48042;SDS011;33988;47.992;8.820;2023-11-21T02:02:52;8.93;;;2.78;;
48042;SDS011;33988;47.992;8.820;2023-11-21T02:05:23;5.95;;;2.60;;
48042;SDS011;33988;47.992;8.820;2023-11-21T02:07:50;8.90;;;4.07;;
48042;SDS011;33988;47.992;8.820;2023-11-21T02:10:21;6.13;;;2.42;;
48042;SDS011;33988;47.992;8.820;2023-11-21T02:12:51;4.32;;;1.58;;
48042;SDS011;33988;47.992;8.820;2023-11-21T02:15:18;3.33;;;1.20;;
48042;SDS011;33988;47.992;8.820;2023-11-21T02:17:50;4.82;;;1.10;;
48042;SDS011;33988;47.992;8.820;2023-11-21T02:20:20;2.10;;;0.80;;
48042;SDS011;33988;47.992;8.820;2023-11-21T02:22:51;1.67;;;0.82;;
48042;SDS011;33988;47.992;8.820;2023-11-21T02:25:26;1.70;;;0.70;;
48042;SDS011;33988;47.992;8.820;2023-11-21T02:27:59;2.10;;;0.77;;
48042;SDS011;33988;47.992;8.820;2023-11-21T02:30:32;2.28;;;0.80;;
48042;SDS011;33988;47.992;8.820;2023-11-21T02:33:04;1.58;;;0.70;;
48042;SDS011;33988;47.992;8.820;2023-11-21T02:35:31;0.82;;;0.60;;
48042;SDS011;33988;47.992;8.820;2023-11-21T02:37:58;1.02;;;0.70;;
48042;SDS011;33988;47.992;8.820;2023-11-21T02:40:29;2.58;;;0.90;;
48042;SDS011;33988;47.992;8.820;2023-11-21T02:42:59;1.27;;;0.60;;
48042;SDS011;33988;47.992;8.820;2023-11-21T02:45:29;0.98;;;0.60;;
48042;SDS011;33988;47.992;8.820;2023-11-21T02:47:56;2.90;;;0.90;;
48042;SDS011;33988;47.992;8.820;2023-11-21T02:50:24;1.27;;;0.50;;
48042;SDS011;33988;47.992;8.820;2023-11-21T02:52:54;2.03;;;0.70;;
48042;SDS011;33988;47.992;8.820;2023-11-21T02:55:27;1.95;;;0.75;;
48042;SDS011;33988;47.992;8.820;2023-11-21T02:57:57;1.00;;;0.50;;
48042;SDS011;33988;47.992;8.820;2023-11-21T03:00:24;2.58;;;0.68;;
48042;SDS011;33988;47.992;8.820;2023-11-21T03:02:54;1.80;;;0.57;;
48042;SDS011;33988;47.992;8.820;2023-11-21T03:05:22;2.00;;;0.60;;
48042;SDS011;33988;47.992;8.820;2023-11-21T03:07:49;1.08;;;0.60;;
48042;SDS011;33988;47.992;8.820;2023-11-21T03:10:16;1.75;;;0.50;;
48042;SDS011;33988;47.992;8.820;2023-11-21T03:12:43;0.93;;;0.47;;
48042;SDS011;33988;47.992;8.820;2023-11-21T03:15:10;2.17;;;0.63;;
48042;SDS011;33988;47.992;8.820;2023-11-21T03:17:42;1.73;;;0.60;;
48042;SDS011;33988;47.992;8.820;2023-11-21T03:20:18;1.48;;;0.80;;
48042;SDS011;33988;47.992;8.820;2023-11-21T03:22:45;2.22;;;0.90;;
48042;SDS011;33988;47.992;8.820;2023-11-21T03:25:12;1.35;;;0.60;;
48042;SDS011;33988;47.992;8.820;2023-11-21T03:27:40;1.65;;;0.55;;
48042;SDS011;33988;47.992;8.820;2023-11-21T03:30:07;1.00;;;0.70;;
48042;SDS011;33988;47.992;8.820;2023-11-21T03:32:36;2.33;;;0.90;;
48042;SDS011;33988;47.992;8.820;2023-11-21T03:35:03;1.33;;;0.70;;
48042;SDS011;33988;47.992;8.820;2023-11-21T03:37:32;1.67;;;0.70;;
48042;SDS011;33988;47.992;8.820;2023-11-21T03:39:59;0.75;;;0.40;;
48042;SDS011;33988;47.992;8.820;2023-11-21T03:42:30;1.13;;;0.50;;
48042;SDS011;33988;47.992;8.820;2023-11-21T03:44:57;1.88;;;0.70;;
48042;SDS011;33988;47.992;8.820;2023-11-21T03:47:25;3.17;;;0.57;;
48042;SDS011;33988;47.992;8.820;2023-11-21T03:49:54;1.25;;;0.50;;
48042;SDS011;33988;47.992;8.820;2023-11-21T03:52:21;0.40;;;0.40;;
48042;SDS011;33988;47.992;8.820;2023-11-21T03:54:50;0.60;;;0.30;;
48042;SDS011;33988;47.992;8.820;2023-11-21T03:57:17;2.53;;;0.60;;
48042;SDS011;33988;47.992;8.820;2023-11-21T03:59:47;1.08;;;0.38;;
48042;SDS011;33988;47.992;8.820;2023-11-21T04:02:14;1.13;;;0.70;;
48042;SDS011;33988;47.992;8.820;2023-11-21T04:04:41;1.45;;;1.27;;
48042;SDS011;33988;47.992;8.820;2023-11-21T04:07:08;1.10;;;0.90;;
48042;SDS011;33988;47.992;8.820;2023-11-21T04:09:40;2.92;;;0.95;;
48042;SDS011;33988;47.992;8.820;2023-11-21T04:12:07;2.22;;;0.75;;
48042;SDS011;33988;47.992;8.820;2023-11-21T04:14:36;3.03;;;0.60;;
48042;SDS011;33988;47.992;8.820;2023-11-21T04:17:06;1.90;;;0.68;;
48042;SDS011;33988;47.992;8.820;2023-11-21T04:19:33;1.08;;;0.68;;
48042;SDS011;33988;47.992;8.820;2023-11-21T04:22:00;0.88;;;0.55;;
48042;SDS011;33988;47.992;8.820;2023-11-21T04:24:30;0.63;;;0.40;;
48042;SDS011;33988;47.992;8.820;2023-11-21T04:26:59;0.40;;;0.40;;
48042;SDS011;33988;47.992;8.820;2023-11-21T04:29:26;1.75;;;0.40;;
48042;SDS011;33988;47.992;8.820;2023-11-21T04:31:56;0.60;;;0.40;;
48042;SDS011;33988;47.992;8.820;2023-11-21T04:34:25;1.63;;;0.60;;
48042;SDS011;33988;47.992;8.820;2023-11-21T04:36:52;0.63;;;0.60;;
48042;SDS011;33988;47.992;8.820;2023-11-21T04:39:22;2.30;;;1.00;;
48042;SDS011;33988;47.992;8.820;2023-11-21T04:41:51;1.05;;;0.65;;
48042;SDS011;33988;47.992;8.820;2023-11-21T04:44:18;1.15;;;0.60;;
48042;SDS011;33988;47.992;8.820;2023-11-21T04:46:48;0.40;;;0.35;;
48042;SDS011;33988;47.992;8.820;2023-11-21T04:49:17;0.50;;;0.50;;
48042;SDS011;33988;47.992;8.820;2023-11-21T04:51:44;1.73;;;0.63;;
48042;SDS011;33988;47.992;8.820;2023-11-21T04:54:13;1.35;;;0.80;;
48042;SDS011;33988;47.992;8.820;2023-11-21T04:56:40;4.63;;;1.08;;
48042;SDS011;33988;47.992;8.820;2023-11-21T04:59:09;2.05;;;1.15;;
48042;SDS011;33988;47.992;8.820;2023-11-21T05:01:36;3.08;;;1.60;;
48042;SDS011;33988;47.992;8.820;2023-11-21T05:04:05;2.47;;;1.42;;
48042;SDS011;33988;47.992;8.820;2023-11-21T05:06:35;4.47;;;1.80;;
48042;SDS011;33988;47.992;8.820;2023-11-21T05:09:02;2.63;;;1.38;;
48042;SDS011;33988;47.992;8.820;2023-11-21T05:11:29;1.55;;;0.90;;
48042;SDS011;33988;47.992;8.820;2023-11-21T05:13:56;1.50;;;0.88;;
48042;SDS011;33988;47.992;8.820;2023-11-21T05:16:25;2.83;;;1.30;;
48042;SDS011;33988;47.992;8.820;2023-11-21T05:18:55;2.55;;;1.10;;
48042;SDS011;33988;47.992;8.820;2023-11-21T05:21:27;1.13;;;0.93;;
48042;SDS011;33988;47.992;8.820;2023-11-21T05:23:56;2.47;;;1.33;;
48042;SDS011;33988;47.992;8.820;2023-11-21T05:26:22;2.35;;;1.20;;
48042;SDS011;33988;47.992;8.820;2023-11-21T05:28:52;2.67;;;1.40;;
48042;SDS011;33988;47.992;8.820;2023-11-21T05:31:21;1.33;;;0.80;;
48042;SDS011;33988;47.992;8.820;2023-11-21T05:33:51;0.95;;;0.75;;
48042;SDS011;33988;47.992;8.820;2023-11-21T05:36:18;1.30;;;0.60;;
48042;SDS011;33988;47.992;8.820;2023-11-21T05:38:47;0.85;;;0.80;;
48042;SDS011;33988;47.992;8.820;2023-11-21T05:41:15;0.80;;;0.47;;
48042;SDS011;33988;47.992;8.820;2023-11-21T05:43:42;0.52;;;0.50;;
48042;SDS011;33988;47.992;8.820;2023-11-21T05:46:11;3.15;;;0.77;;
48042;SDS011;33988;47.992;8.820;2023-11-21T05:48:39;1.23;;;0.73;;
48042;SDS011;33988;47.992;8.820;2023-11-21T05:51:08;1.40;;;1.00;;
48042;SDS011;33988;47.992;8.820;2023-11-21T05:53:41;3.13;;;0.88;;
48042;SDS011;33988;47.992;8.820;2023-11-21T05:56:08;1.55;;;0.90;;
48042;SDS011;33988;47.992;8.820;2023-11-21T05:58:38;0.82;;;0.70;;
48042;SDS011;33988;47.992;8.820;2023-11-21T06:01:05;0.60;;;0.60;;
48042;SDS011;33988;47.992;8.820;2023-11-21T06:03:39;0.95;;;0.50;;
48042;SDS011;33988;47.992;8.820;2023-11-21T06:06:09;1.05;;;0.57;;
48042;SDS011;33988;47.992;8.820;2023-11-21T06:08:36;1.40;;;0.75;;
48042;SDS011;33988;47.992;8.820;2023-11-21T06:11:06;1.85;;;0.88;;
48042;SDS011;33988;47.992;8.820;2023-11-21T06:13:34;2.95;;;1.40;;
48042;SDS011;33988;47.992;8.820;2023-11-21T06:16:04;2.95;;;1.70;;
48042;SDS011;33988;47.992;8.820;2023-11-21T06:18:34;3.15;;;1.73;;
48042;SDS011;33988;47.992;8.820;2023-11-21T06:21:01;14.20;;;2.47;;
48042;SDS011;33988;47.992;8.820;2023-11-21T06:23:28;4.10;;;2.60;;
48042;SDS011;33988;47.992;8.820;2023-11-21T06:25:57;3.65;;;2.70;;
48042;SDS011;33988;47.992;8.820;2023-11-21T06:28:25;2.42;;;2.00;;
48042;SDS011;33988;47.992;8.820;2023-11-21T06:30:54;2.80;;;1.58;;
48042;SDS011;33988;47.992;8.820;2023-11-21T06:33:33;1.83;;;1.38;;
48042;SDS011;33988;47.992;8.820;2023-11-21T06:36:02;1.38;;;1.27;;
48042;SDS011;33988;47.992;8.820;2023-11-21T06:38:30;2.05;;;1.30;;
48042;SDS011;33988;47.992;8.820;2023-11-21T06:40:58;2.28;;;1.33;;
48042;SDS011;33988;47.992;8.820;2023-11-21T06:43:30;2.08;;;1.48;;
48042;SDS011;33988;47.992;8.820;2023-11-21T06:45:57;2.10;;;1.25;;
48042;SDS011;33988;47.992;8.820;2023-11-21T06:48:25;1.70;;;1.38;;
48042;SDS011;33988;47.992;8.820;2023-11-21T06:50:52;1.98;;;1.38;;
48042;SDS011;33988;47.992;8.820;2023-11-21T06:53:19;1.65;;;1.30;;
48042;SDS011;33988;47.992;8.820;2023-11-21T06:55:46;1.52;;;1.25;;
48042;SDS011;33988;47.992;8.820;2023-11-21T06:58:12;3.90;;;1.50;;
48042;SDS011;33988;47.992;8.820;2023-11-21T07:00:41;1.25;;;0.90;;
48042;SDS011;33988;47.992;8.820;2023-11-21T07:05:42;1.23;;;1.00;;
48042;SDS011;33988;47.992;8.820;2023-11-21T07:08:09;1.15;;;1.05;;
48042;SDS011;33988;47.992;8.820;2023-11-21T07:10:38;1.15;;;1.00;;
48042;SDS011;33988;47.992;8.820;2023-11-21T07:13:05;1.63;;;1.08;;
48042;SDS011;33988;47.992;8.820;2023-11-21T07:15:38;1.35;;;1.25;;
48042;SDS011;33988;47.992;8.820;2023-11-21T07:18:09;1.27;;;1.10;;
48042;SDS011;33988;47.992;8.820;2023-11-21T07:20:37;1.75;;;1.30;;
48042;SDS011;33988;47.992;8.820;2023-11-21T07:23:07;1.10;;;1.00;;
48042;SDS011;33988;47.992;8.820;2023-11-21T07:25:34;1.90;;;1.13;;
48042;SDS011;33988;47.992;8.820;2023-11-21T07:28:03;1.35;;;0.90;;
48042;SDS011;33988;47.992;8.820;2023-11-21T07:30:33;1.08;;;0.80;;
48042;SDS011;33988;47.992;8.820;2023-11-21T07:33:02;1.40;;;1.30;;
48042;SDS011;33988;47.992;8.820;2023-11-21T07:35:29;1.80;;;1.30;;
48042;SDS011;33988;47.992;8.820;2023-11-21T07:37:56;2.85;;;1.98;;
48042;SDS011;33988;47.992;8.820;2023-11-21T07:40:23;2.60;;;1.67;;
48042;SDS011;33988;47.992;8.820;2023-11-21T07:42:50;3.08;;;1.60;;
48042;SDS011;33988;47.992;8.820;2023-11-21T07:45:17;2.55;;;1.40;;
48042;SDS011;33988;47.992;8.820;2023-11-21T07:47:44;2.03;;;1.30;;
48042;SDS011;33988;47.992;8.820;2023-11-21T07:50:13;2.28;;;1.20;;
48042;SDS011;33988;47.992;8.820;2023-11-21T07:52:40;1.40;;;1.10;;
48042;SDS011;33988;47.992;8.820;2023-11-21T07:55:09;1.55;;;1.02;;
48042;SDS011;33988;47.992;8.820;2023-11-21T07:57:37;2.40;;;1.20;;
48042;SDS011;33988;47.992;8.820;2023-11-21T08:00:05;1.48;;;0.93;;
48042;SDS011;33988;47.992;8.820;2023-11-21T08:02:35;1.27;;;1.03;;
48042;SDS011;33988;47.992;8.820;2023-11-21T08:05:04;1.42;;;1.10;;
48042;SDS011;33988;47.992;8.820;2023-11-21T08:07:36;1.55;;;0.80;;
48042;SDS011;33988;47.992;8.820;2023-11-21T08:10:03;0.80;;;0.80;;
48042;SDS011;33988;47.992;8.820;2023-11-21T08:12:31;1.48;;;0.80;;
48042;SDS011;33988;47.992;8.820;2023-11-21T08:14:58;2.88;;;0.90;;
48042;SDS011;33988;47.992;8.820;2023-11-21T08:17:25;0.85;;;0.82;;
48042;SDS011;33988;47.992;8.820;2023-11-21T08:19:52;2.55;;;1.10;;
48042;SDS011;33988;47.992;8.820;2023-11-21T08:22:19;2.15;;;0.88;;
48042;SDS011;33988;47.992;8.820;2023-11-21T08:24:49;2.00;;;0.90;;
48042;SDS011;33988;47.992;8.820;2023-11-21T08:27:16;1.40;;;1.08;;
48042;SDS011;33988;47.992;8.820;2023-11-21T08:29:43;2.20;;;1.30;;
48042;SDS011;33988;47.992;8.820;2023-11-21T08:32:10;1.30;;;1.20;;
48042;SDS011;33988;47.992;8.820;2023-11-21T08:34:37;1.10;;;1.00;;
48042;SDS011;33988;47.992;8.820;2023-11-21T08:37:08;1.15;;;0.93;;
48042;SDS011;33988;47.992;8.820;2023-11-21T08:39:37;1.48;;;0.90;;
48042;SDS011;33988;47.992;8.820;2023-11-21T08:42:04;0.73;;;0.73;;
48042;SDS011;33988;47.992;8.820;2023-11-21T08:44:33;1.33;;;1.00;;
48042;SDS011;33988;47.992;8.820;2023-11-21T08:47:00;1.75;;;1.10;;
48042;SDS011;33988;47.992;8.820;2023-11-21T08:49:33;0.68;;;0.68;;
48042;SDS011;33988;47.992;8.820;2023-11-21T08:52:05;1.10;;;0.60;;
48042;SDS011;33988;47.992;8.820;2023-11-21T08:54:32;1.38;;;0.73;;
48042;SDS011;33988;47.992;8.820;2023-11-21T08:57:00;1.15;;;0.80;;
48042;SDS011;33988;47.992;8.820;2023-11-21T08:59:27;1.52;;;0.80;;
48042;SDS011;33988;47.992;8.820;2023-11-21T09:01:54;2.83;;;1.80;;
48042;SDS011;33988;47.992;8.820;2023-11-21T09:04:24;3.15;;;1.80;;
48042;SDS011;33988;47.992;8.820;2023-11-21T09:06:53;3.15;;;2.47;;
48042;SDS011;33988;47.992;8.820;2023-11-21T09:09:26;2.55;;;1.83;;
48042;SDS011;33988;47.992;8.820;2023-11-21T09:11:53;2.10;;;1.60;;
48042;SDS011;33988;47.992;8.820;2023-11-21T09:14:23;1.70;;;1.60;;
48042;SDS011;33988;47.992;8.820;2023-11-21T09:16:50;1.92;;;1.35;;
48042;SDS011;33988;47.992;8.820;2023-11-21T09:19:17;2.30;;;1.15;;
48042;SDS011;33988;47.992;8.820;2023-11-21T09:21:52;1.95;;;0.93;;
48042;SDS011;33988;47.992;8.820;2023-11-21T09:24:19;1.05;;;0.93;;
48042;SDS011;33988;47.992;8.820;2023-11-21T09:26:49;4.53;;;0.80;;
48042;SDS011;33988;47.992;8.820;2023-11-21T09:29:15;0.95;;;0.80;;
48042;SDS011;33988;47.992;8.820;2023-11-21T09:31:42;1.52;;;0.80;;
48042;SDS011;33988;47.992;8.820;2023-11-21T09:34:10;1.00;;;0.82;;
48042;SDS011;33988;47.992;8.820;2023-11-21T09:36:40;0.88;;;0.77;;
48042;SDS011;33988;47.992;8.820;2023-11-21T09:39:07;1.10;;;0.70;;
48042;SDS011;33988;47.992;8.820;2023-11-21T09:41:46;1.40;;;0.80;;
48042;SDS011;33988;47.992;8.820;2023-11-21T09:44:17;2.33;;;0.70;;
48042;SDS011;33988;47.992;8.820;2023-11-21T09:46:49;0.60;;;0.60;;
48042;SDS011;33988;47.992;8.820;2023-11-21T09:49:22;0.95;;;0.80;;
48042;SDS011;33988;47.992;8.820;2023-11-21T09:51:56;0.70;;;0.65;;
48042;SDS011;33988;47.992;8.820;2023-11-21T09:54:25;0.63;;;0.63;;
48042;SDS011;33988;47.992;8.820;2023-11-21T09:56:52;2.13;;;0.73;;
48042;SDS011;33988;47.992;8.820;2023-11-21T09:59:24;1.75;;;0.80;;
48042;SDS011;33988;47.992;8.820;2023-11-21T10:01:57;3.20;;;0.80;;
48042;SDS011;33988;47.992;8.820;2023-11-21T10:04:25;1.63;;;0.90;;
48042;SDS011;33988;47.992;8.820;2023-11-21T10:06:54;1.40;;;0.80;;
48042;SDS011;33988;47.992;8.820;2023-11-21T10:09:24;1.25;;;0.80;;
48042;SDS011;33988;47.992;8.820;2023-11-21T10:11:53;1.20;;;0.73;;
48042;SDS011;33988;47.992;8.820;2023-11-21T10:14:24;0.63;;;0.38;;
48042;SDS011;33988;47.992;8.820;2023-11-21T10:16:52;0.65;;;0.60;;
48042;SDS011;33988;47.992;8.820;2023-11-21T10:19:23;0.57;;;0.50;;
48042;SDS011;33988;47.992;8.820;2023-11-21T10:21:53;0.75;;;0.65;;
48042;SDS011;33988;47.992;8.820;2023-11-21T10:24:20;1.13;;;0.82;;
48042;SDS011;33988;47.992;8.820;2023-11-21T10:26:48;0.30;;;0.30;;
48042;SDS011;33988;47.992;8.820;2023-11-21T10:29:21;0.50;;;0.50;;
48042;SDS011;33988;47.992;8.820;2023-11-21T10:31:53;0.60;;;0.60;;
48042;SDS011;33988;47.992;8.820;2023-11-21T10:34:24;0.77;;;0.60;;
48042;SDS011;33988;47.992;8.820;2023-11-21T10:36:53;1.15;;;0.70;;
48042;SDS011;33988;47.992;8.820;2023-11-21T10:39:24;0.80;;;0.80;;
48042;SDS011;33988;47.992;8.820;2023-11-21T10:41:57;3.40;;;0.80;;
48042;SDS011;33988;47.992;8.820;2023-11-21T10:44:27;0.85;;;0.70;;
48042;SDS011;33988;47.992;8.820;2023-11-21T10:46:56;0.75;;;0.60;;
48042;SDS011;33988;47.992;8.820;2023-11-21T10:49:27;0.52;;;0.52;;
48042;SDS011;33988;47.992;8.820;2023-11-21T10:51:56;1.90;;;0.70;;
48042;SDS011;33988;47.992;8.820;2023-11-21T10:54:30;3.35;;;0.88;;
48042;SDS011;33988;47.992;8.820;2023-11-21T10:56:57;2.90;;;0.82;;
48042;SDS011;33988;47.992;8.820;2023-11-21T10:59:29;3.53;;;1.15;;
48042;SDS011;33988;47.992;8.820;2023-11-21T11:01:58;3.58;;;1.08;;
48042;SDS011;33988;47.992;8.820;2023-11-21T11:04:27;1.83;;;0.73;;
48042;SDS011;33988;47.992;8.820;2023-11-21T11:06:57;1.02;;;0.70;;
48042;SDS011;33988;47.992;8.820;2023-11-21T11:09:31;1.15;;;0.80;;
48042;SDS011;33988;47.992;8.820;2023-11-21T11:12:01;0.63;;;0.45;;
48042;SDS011;33988;47.992;8.820;2023-11-21T11:14:31;1.25;;;0.60;;
48042;SDS011;33988;47.992;8.820;2023-11-21T11:16:59;0.65;;;0.60;;
48042;SDS011;33988;47.992;8.820;2023-11-21T11:19:28;1.40;;;0.80;;
48042;SDS011;33988;47.992;8.820;2023-11-21T11:30:47;0.70;;;0.60;;
48042;SDS011;33988;47.992;8.820;2023-11-21T11:33:41;0.60;;;0.60;;
48042;SDS011;33988;47.992;8.820;2023-11-21T11:39:27;2.28;;;0.88;;
48042;SDS011;33988;47.992;8.820;2023-11-21T11:42:03;2.85;;;0.80;;
48042;SDS011;33988;47.992;8.820;2023-11-21T11:47:15;0.90;;;0.60;;
48042;SDS011;33988;47.992;8.820;2023-11-21T11:52:44;0.82;;;0.63;;
48042;SDS011;33988;47.992;8.820;2023-11-21T11:55:20;0.73;;;0.70;;
48042;SDS011;33988;47.992;8.820;2023-11-21T11:57:51;0.95;;;0.90;;
48042;SDS011;33988;47.992;8.820;2023-11-21T12:00:33;1.13;;;0.70;;
48042;SDS011;33988;47.992;8.820;2023-11-21T12:03:04;0.57;;;0.57;;
48042;SDS011;33988;47.992;8.820;2023-11-21T12:05:34;5.47;;;1.20;;
48042;SDS011;33988;47.992;8.820;2023-11-21T12:08:06;4.82;;;1.23;;
48042;SDS011;33988;47.992;8.820;2023-11-21T12:10:35;3.60;;;1.17;;
48042;SDS011;33988;47.992;8.820;2023-11-21T12:13:11;1.65;;;0.80;;
48042;SDS011;33988;47.992;8.820;2023-11-21T12:15:41;0.82;;;0.70;;
48042;SDS011;33988;47.992;8.820;2023-11-21T12:18:08;0.95;;;0.65;;
48042;SDS011;33988;47.992;8.820;2023-11-21T12:20:36;0.63;;;0.60;;
48042;SDS011;33988;47.992;8.820;2023-11-21T12:23:06;4.95;;;0.80;;
48042;SDS011;33988;47.992;8.820;2023-11-21T12:25:35;0.50;;;0.50;;
48042;SDS011;33988;47.992;8.820;2023-11-21T12:28:03;0.55;;;0.50;;
48042;SDS011;33988;47.992;8.820;2023-11-21T12:30:30;0.80;;;0.52;;
48042;SDS011;33988;47.992;8.820;2023-11-21T12:32:59;1.30;;;0.85;;
48042;SDS011;33988;47.992;8.820;2023-11-21T12:35:28;1.10;;;0.80;;
48042;SDS011;33988;47.992;8.820;2023-11-21T12:38:01;0.70;;;0.70;;
48042;SDS011;33988;47.992;8.820;2023-11-21T12:40:32;1.50;;;0.70;;
48042;SDS011;33988;47.992;8.820;2023-11-21T12:43:04;1.27;;;0.77;;
48042;SDS011;33988;47.992;8.820;2023-11-21T12:45:31;1.00;;;0.90;;
48042;SDS011;33988;47.992;8.820;2023-11-21T12:50:34;0.75;;;0.70;;
48042;SDS011;33988;47.992;8.820;2023-11-21T12:53:10;0.73;;;0.70;;
48042;SDS011;33988;47.992;8.820;2023-11-21T12:55:39;0.47;;;0.47;;
48042;SDS011;33988;47.992;8.820;2023-11-21T12:58:08;0.93;;;0.60;;
48042;SDS011;33988;47.992;8.820;2023-11-21T13:00:40;0.60;;;0.60;;
48042;SDS011;33988;47.992;8.820;2023-11-21T13:03:14;1.00;;;0.68;;
48042;SDS011;33988;47.992;8.820;2023-11-21T13:05:45;0.50;;;0.50;;
48042;SDS011;33988;47.992;8.820;2023-11-21T13:08:19;1.77;;;0.70;;
48042;SDS011;33988;47.992;8.820;2023-11-21T13:10:53;0.50;;;0.50;;
48042;SDS011;33988;47.992;8.820;2023-11-21T13:13:24;0.50;;;0.50;;
48042;SDS011;33988;47.992;8.820;2023-11-21T13:18:34;0.57;;;0.57;;
48042;SDS011;33988;47.992;8.820;2023-11-21T13:21:03;0.70;;;0.65;;
48042;SDS011;33988;47.992;8.820;2023-11-21T13:23:37;0.90;;;0.70;;
48042;SDS011;33988;47.992;8.820;2023-11-21T13:26:11;1.05;;;0.85;;
48042;SDS011;33988;47.992;8.820;2023-11-21T13:28:39;1.00;;;0.80;;
48042;SDS011;33988;47.992;8.820;2023-11-21T13:31:07;1.65;;;0.70;;
48042;SDS011;33988;47.992;8.820;2023-11-21T13:33:50;2.75;;;0.80;;
48042;SDS011;33988;47.992;8.820;2023-11-21T13:36:22;1.23;;;0.70;;
48042;SDS011;33988;47.992;8.820;2023-11-21T13:38:50;0.77;;;0.70;;
48042;SDS011;33988;47.992;8.820;2023-11-21T13:41:20;1.10;;;0.80;;
48042;SDS011;33988;47.992;8.820;2023-11-21T13:43:57;1.55;;;1.13;;
48042;SDS011;33988;47.992;8.820;2023-11-21T13:46:43;1.45;;;1.20;;
48042;SDS011;33988;47.992;8.820;2023-11-21T13:49:14;1.73;;;0.95;;
48042;SDS011;33988;47.992;8.820;2023-11-21T13:51:47;0.82;;;0.80;;
48042;SDS011;33988;47.992;8.820;2023-11-21T13:54:18;1.70;;;1.10;;
48042;SDS011;33988;47.992;8.820;2023-11-21T13:56:49;0.70;;;0.70;;
48042;SDS011;33988;47.992;8.820;2023-11-21T13:59:17;1.25;;;0.80;;
48042;SDS011;33988;47.992;8.820;2023-11-21T14:01:52;1.23;;;0.70;;
48042;SDS011;33988;47.992;8.820;2023-11-21T14:04:19;1.20;;;0.85;;
48042;SDS011;33988;47.992;8.820;2023-11-21T14:07:01;1.15;;;0.80;;
48042;SDS011;33988;47.992;8.820;2023-11-21T14:09:46;0.60;;;0.60;;
48042;SDS011;33988;47.992;8.820;2023-11-21T14:12:15;1.08;;;0.77;;
48042;SDS011;33988;47.992;8.820;2023-11-21T14:14:44;0.40;;;0.40;;
48042;SDS011;33988;47.992;8.820;2023-11-21T14:19:43;0.63;;;0.50;;
48042;SDS011;33988;47.992;8.820;2023-11-21T14:22:13;0.45;;;0.45;;
48042;SDS011;33988;47.992;8.820;2023-11-21T14:24:40;0.40;;;0.40;;
48042;SDS011;33988;47.992;8.820;2023-11-21T14:27:15;1.13;;;0.50;;
48042;SDS011;33988;47.992;8.820;2023-11-21T14:29:42;0.40;;;0.40;;
48042;SDS011;33988;47.992;8.820;2023-11-21T14:32:11;0.80;;;0.70;;
48042;SDS011;33988;47.992;8.820;2023-11-21T14:34:39;1.00;;;0.60;;
48042;SDS011;33988;47.992;8.820;2023-11-21T14:37:09;0.70;;;0.68;;
48042;SDS011;33988;47.992;8.820;2023-11-21T14:39:40;1.42;;;0.80;;
48042;SDS011;33988;47.992;8.820;2023-11-21T14:42:14;0.80;;;0.55;;
48042;SDS011;33988;47.992;8.820;2023-11-21T14:44:42;1.17;;;0.70;;
48042;SDS011;33988;47.992;8.820;2023-11-21T14:47:09;1.17;;;0.80;;
48042;SDS011;33988;47.992;8.820;2023-11-21T14:49:43;1.80;;;1.30;;
48042;SDS011;33988;47.992;8.820;2023-11-21T14:52:20;1.85;;;1.13;;
48042;SDS011;33988;47.992;8.820;2023-11-21T14:55:15;0.77;;;0.77;;
48042;SDS011;33988;47.992;8.820;2023-11-21T14:58:05;0.73;;;0.73;;
48042;SDS011;33988;47.992;8.820;2023-11-21T15:00:32;1.38;;;1.05;;
48042;SDS011;33988;47.992;8.820;2023-11-21T15:03:02;1.92;;;0.90;;
48042;SDS011;33988;47.992;8.820;2023-11-21T15:05:30;1.45;;;1.00;;
48042;SDS011;33988;47.992;8.820;2023-11-21T15:08:00;1.25;;;1.10;;
48042;SDS011;33988;47.992;8.820;2023-11-21T15:10:47;1.27;;;0.85;;
48042;SDS011;33988;47.992;8.820;2023-11-21T15:13:20;1.38;;;0.90;;
48042;SDS011;33988;47.992;8.820;2023-11-21T15:15:49;1.10;;;0.88;;
48042;SDS011;33988;47.992;8.820;2023-11-21T15:18:18;1.23;;;0.80;;
48042;SDS011;33988;47.992;8.820;2023-11-21T15:20:45;0.80;;;0.80;;
48042;SDS011;33988;47.992;8.820;2023-11-21T15:23:12;2.05;;;1.50;;
48042;SDS011;33988;47.992;8.820;2023-11-21T15:25:45;1.75;;;1.20;;
48042;SDS011;33988;47.992;8.820;2023-11-21T15:28:16;2.10;;;1.48;;
48042;SDS011;33988;47.992;8.820;2023-11-21T15:30:46;3.83;;;2.35;;